sensor_id;sensor_type;location;lat;lon;timestamp;P1;durP1;ratioP1;P2;durP2;ratioP2
8663;SDS011;4369;47.842;13.096;2022-10-16T00:00:34;4.77;;;1.37;;
8663;SDS011;4369;47.842;13.096;2022-10-16T00:03:02;3.63;;;1.90;;
8663;SDS011;4369;47.842;13.096;2022-10-16T00:05:30;3.93;;;1.70;;
8663;SDS011;4369;47.842;13.096;2022-10-16T00:07:56;11.20;;;1.83;;
8663;SDS011;4369;47.842;13.096;2022-10-16T00:10:25;3.70;;;1.57;;
8663;SDS011;4369;47.842;13.096;2022-10-16T00:12:51;2.80;;;1.50;;
8663;SDS011;4369;47.842;13.096;2022-10-16T00:15:18;1.50;;;1.40;;
8663;SDS011;4369;47.842;13.096;2022-10-16T00:17:45;2.93;;;1.80;;
8663;SDS011;4369;47.842;13.096;2022-10-16T00:20:12;4.87;;;1.53;;
8663;SDS011;4369;47.842;13.096;2022-10-16T00:22:39;5.87;;;1.70;;
8663;SDS011;4369;47.842;13.096;2022-10-16T00:25:06;3.17;;;1.50;;
8663;SDS011;4369;47.842;13.096;2022-10-16T00:27:34;2.20;;;1.77;;
8663;SDS011;4369;47.842;13.096;2022-10-16T00:30:01;10.93;;;1.93;;
8663;SDS011;4369;47.842;13.096;2022-10-16T00:32:29;4.27;;;1.80;;
8663;SDS011;4369;47.842;13.096;2022-10-16T00:34:56;3.30;;;1.73;;
8663;SDS011;4369;47.842;13.096;2022-10-16T00:37:22;1.80;;;1.70;;
8663;SDS011;4369;47.842;13.096;2022-10-16T00:39:49;2.20;;;1.43;;
8663;SDS011;4369;47.842;13.096;2022-10-16T00:42:17;5.13;;;2.60;;
8663;SDS011;4369;47.842;13.096;2022-10-16T00:44:47;2.50;;;2.30;;
8663;SDS011;4369;47.842;13.096;2022-10-16T00:47:19;7.73;;;2.53;;
8663;SDS011;4369;47.842;13.096;2022-10-16T00:49:49;6.53;;;2.37;;
8663;SDS011;4369;47.842;13.096;2022-10-16T00:52:19;2.23;;;1.97;;
8663;SDS011;4369;47.842;13.096;2022-10-16T00:54:46;5.63;;;2.00;;
8663;SDS011;4369;47.842;13.096;2022-10-16T00:57:15;4.43;;;2.00;;
8663;SDS011;4369;47.842;13.096;2022-10-16T00:59:42;4.17;;;2.27;;
8663;SDS011;4369;47.842;13.096;2022-10-16T01:02:11;3.60;;;2.30;;
8663;SDS011;4369;47.842;13.096;2022-10-16T01:04:40;1.87;;;1.67;;
8663;SDS011;4369;47.842;13.096;2022-10-16T01:07:10;3.83;;;1.80;;
8663;SDS011;4369;47.842;13.096;2022-10-16T01:09:44;5.53;;;1.80;;
8663;SDS011;4369;47.842;13.096;2022-10-16T01:12:20;2.63;;;2.00;;
8663;SDS011;4369;47.842;13.096;2022-10-16T01:14:56;4.67;;;1.80;;
8663;SDS011;4369;47.842;13.096;2022-10-16T01:17:28;6.80;;;2.13;;
8663;SDS011;4369;47.842;13.096;2022-10-16T01:20:06;2.03;;;1.93;;
8663;SDS011;4369;47.842;13.096;2022-10-16T01:22:38;4.60;;;2.07;;
8663;SDS011;4369;47.842;13.096;2022-10-16T01:25:16;3.17;;;2.60;;
8663;SDS011;4369;47.842;13.096;2022-10-16T01:27:51;6.70;;;3.00;;
8663;SDS011;4369;47.842;13.096;2022-10-16T01:30:20;2.57;;;2.37;;
8663;SDS011;4369;47.842;13.096;2022-10-16T01:32:52;5.27;;;1.57;;
8663;SDS011;4369;47.842;13.096;2022-10-16T01:35:23;3.23;;;1.50;;
8663;SDS011;4369;47.842;13.096;2022-10-16T01:37:55;2.17;;;1.60;;
8663;SDS011;4369;47.842;13.096;2022-10-16T01:40:26;9.63;;;1.97;;
8663;SDS011;4369;47.842;13.096;2022-10-16T01:42:58;6.23;;;1.30;;
8663;SDS011;4369;47.842;13.096;2022-10-16T01:45:29;4.33;;;1.30;;
8663;SDS011;4369;47.842;13.096;2022-10-16T01:47:59;6.53;;;1.30;;
8663;SDS011;4369;47.842;13.096;2022-10-16T01:50:29;3.40;;;1.80;;
8663;SDS011;4369;47.842;13.096;2022-10-16T01:52:59;4.37;;;1.50;;
8663;SDS011;4369;47.842;13.096;2022-10-16T01:55:28;1.67;;;1.53;;
8663;SDS011;4369;47.842;13.096;2022-10-16T01:57:59;3.30;;;1.47;;
8663;SDS011;4369;47.842;13.096;2022-10-16T02:00:28;2.77;;;1.53;;
8663;SDS011;4369;47.842;13.096;2022-10-16T02:02:56;4.63;;;1.87;;
8663;SDS011;4369;47.842;13.096;2022-10-16T02:05:28;7.07;;;1.77;;
8663;SDS011;4369;47.842;13.096;2022-10-16T02:07:58;1.10;;;1.10;;
8663;SDS011;4369;47.842;13.096;2022-10-16T02:10:25;1.87;;;1.47;;
8663;SDS011;4369;47.842;13.096;2022-10-16T02:12:56;2.17;;;1.60;;
8663;SDS011;4369;47.842;13.096;2022-10-16T02:15:27;1.63;;;1.47;;
8663;SDS011;4369;47.842;13.096;2022-10-16T02:17:54;5.03;;;1.70;;
8663;SDS011;4369;47.842;13.096;2022-10-16T02:20:22;3.43;;;1.63;;
8663;SDS011;4369;47.842;13.096;2022-10-16T02:22:52;4.20;;;1.40;;
8663;SDS011;4369;47.842;13.096;2022-10-16T02:25:22;4.33;;;1.77;;
8663;SDS011;4369;47.842;13.096;2022-10-16T02:27:52;2.30;;;1.60;;
8663;SDS011;4369;47.842;13.096;2022-10-16T02:30:24;3.50;;;1.30;;
8663;SDS011;4369;47.842;13.096;2022-10-16T02:32:55;5.50;;;1.60;;
8663;SDS011;4369;47.842;13.096;2022-10-16T02:35:24;6.30;;;1.40;;
8663;SDS011;4369;47.842;13.096;2022-10-16T02:37:53;4.53;;;1.33;;
8663;SDS011;4369;47.842;13.096;2022-10-16T02:40:21;2.47;;;1.20;;
8663;SDS011;4369;47.842;13.096;2022-10-16T02:42:49;3.23;;;1.63;;
8663;SDS011;4369;47.842;13.096;2022-10-16T02:45:17;5.43;;;1.20;;
8663;SDS011;4369;47.842;13.096;2022-10-16T02:47:46;4.30;;;1.30;;
8663;SDS011;4369;47.842;13.096;2022-10-16T02:50:13;6.63;;;1.63;;
8663;SDS011;4369;47.842;13.096;2022-10-16T02:52:40;1.40;;;1.30;;
8663;SDS011;4369;47.842;13.096;2022-10-16T02:55:07;4.20;;;1.47;;
8663;SDS011;4369;47.842;13.096;2022-10-16T02:57:34;2.47;;;1.60;;
8663;SDS011;4369;47.842;13.096;2022-10-16T03:00:02;6.30;;;1.80;;
8663;SDS011;4369;47.842;13.096;2022-10-16T03:02:30;3.93;;;1.50;;
8663;SDS011;4369;47.842;13.096;2022-10-16T03:04:58;4.77;;;2.00;;
8663;SDS011;4369;47.842;13.096;2022-10-16T03:07:25;1.80;;;1.70;;
8663;SDS011;4369;47.842;13.096;2022-10-16T03:09:52;3.10;;;1.87;;
8663;SDS011;4369;47.842;13.096;2022-10-16T03:12:19;3.53;;;1.50;;
8663;SDS011;4369;47.842;13.096;2022-10-16T03:14:46;3.47;;;1.90;;
8663;SDS011;4369;47.842;13.096;2022-10-16T03:17:13;2.40;;;1.90;;
8663;SDS011;4369;47.842;13.096;2022-10-16T03:19:41;4.30;;;1.90;;
8663;SDS011;4369;47.842;13.096;2022-10-16T03:22:09;1.73;;;1.20;;
8663;SDS011;4369;47.842;13.096;2022-10-16T03:24:36;7.57;;;2.13;;
8663;SDS011;4369;47.842;13.096;2022-10-16T03:27:03;5.33;;;1.80;;
8663;SDS011;4369;47.842;13.096;2022-10-16T03:29:30;1.93;;;1.60;;
8663;SDS011;4369;47.842;13.096;2022-10-16T03:31:58;3.83;;;1.40;;
8663;SDS011;4369;47.842;13.096;2022-10-16T03:34:25;4.13;;;1.90;;
8663;SDS011;4369;47.842;13.096;2022-10-16T03:36:53;2.03;;;1.60;;
8663;SDS011;4369;47.842;13.096;2022-10-16T03:39:21;3.33;;;1.50;;
8663;SDS011;4369;47.842;13.096;2022-10-16T03:41:48;3.13;;;1.57;;
8663;SDS011;4369;47.842;13.096;2022-10-16T03:44:14;2.43;;;1.80;;
8663;SDS011;4369;47.842;13.096;2022-10-16T03:46:42;3.90;;;1.50;;
8663;SDS011;4369;47.842;13.096;2022-10-16T03:49:08;3.53;;;1.77;;
8663;SDS011;4369;47.842;13.096;2022-10-16T03:51:35;3.00;;;1.87;;
8663;SDS011;4369;47.842;13.096;2022-10-16T03:54:02;3.77;;;1.33;;
8663;SDS011;4369;47.842;13.096;2022-10-16T03:56:30;3.27;;;1.43;;
8663;SDS011;4369;47.842;13.096;2022-10-16T03:58:58;3.40;;;1.90;;
8663;SDS011;4369;47.842;13.096;2022-10-16T04:01:24;1.73;;;1.43;;
8663;SDS011;4369;47.842;13.096;2022-10-16T04:03:51;2.50;;;1.30;;
8663;SDS011;4369;47.842;13.096;2022-10-16T04:06:18;2.07;;;1.77;;
8663;SDS011;4369;47.842;13.096;2022-10-16T04:08:45;3.53;;;1.30;;
8663;SDS011;4369;47.842;13.096;2022-10-16T04:11:12;2.63;;;1.57;;
8663;SDS011;4369;47.842;13.096;2022-10-16T04:13:40;4.77;;;1.43;;
8663;SDS011;4369;47.842;13.096;2022-10-16T04:16:07;2.50;;;1.57;;
8663;SDS011;4369;47.842;13.096;2022-10-16T04:18:34;5.13;;;1.70;;
8663;SDS011;4369;47.842;13.096;2022-10-16T04:21:04;3.17;;;1.70;;
8663;SDS011;4369;47.842;13.096;2022-10-16T04:23:32;1.70;;;1.60;;
8663;SDS011;4369;47.842;13.096;2022-10-16T04:25:59;3.00;;;1.60;;
8663;SDS011;4369;47.842;13.096;2022-10-16T04:28:26;2.13;;;1.40;;
8663;SDS011;4369;47.842;13.096;2022-10-16T04:30:55;3.67;;;1.30;;
8663;SDS011;4369;47.842;13.096;2022-10-16T04:33:22;3.63;;;1.30;;
8663;SDS011;4369;47.842;13.096;2022-10-16T04:35:55;2.50;;;1.40;;
8663;SDS011;4369;47.842;13.096;2022-10-16T04:38:22;3.63;;;1.20;;
8663;SDS011;4369;47.842;13.096;2022-10-16T04:40:49;7.07;;;1.30;;
8663;SDS011;4369;47.842;13.096;2022-10-16T04:43:16;4.23;;;1.47;;
8663;SDS011;4369;47.842;13.096;2022-10-16T04:45:43;2.57;;;1.33;;
8663;SDS011;4369;47.842;13.096;2022-10-16T04:48:11;5.40;;;1.27;;
8663;SDS011;4369;47.842;13.096;2022-10-16T04:50:38;2.97;;;1.30;;
8663;SDS011;4369;47.842;13.096;2022-10-16T04:53:05;3.33;;;1.55;;
8663;SDS011;4369;47.842;13.096;2022-10-16T04:55:32;4.60;;;1.43;;
8663;SDS011;4369;47.842;13.096;2022-10-16T04:57:59;3.23;;;1.33;;
8663;SDS011;4369;47.842;13.096;2022-10-16T05:00:26;3.10;;;1.40;;
8663;SDS011;4369;47.842;13.096;2022-10-16T05:02:53;2.17;;;1.20;;
8663;SDS011;4369;47.842;13.096;2022-10-16T05:05:21;5.23;;;1.40;;
8663;SDS011;4369;47.842;13.096;2022-10-16T05:07:48;1.43;;;1.30;;
8663;SDS011;4369;47.842;13.096;2022-10-16T05:10:15;1.47;;;1.37;;
8663;SDS011;4369;47.842;13.096;2022-10-16T05:12:42;2.57;;;1.50;;
8663;SDS011;4369;47.842;13.096;2022-10-16T05:15:09;3.43;;;1.60;;
8663;SDS011;4369;47.842;13.096;2022-10-16T05:17:37;1.93;;;1.30;;
8663;SDS011;4369;47.842;13.096;2022-10-16T05:20:04;2.70;;;1.80;;
8663;SDS011;4369;47.842;13.096;2022-10-16T05:22:33;6.07;;;2.20;;
8663;SDS011;4369;47.842;13.096;2022-10-16T05:25:00;2.70;;;2.00;;
8663;SDS011;4369;47.842;13.096;2022-10-16T05:27:26;4.63;;;2.20;;
8663;SDS011;4369;47.842;13.096;2022-10-16T05:29:53;3.73;;;2.20;;
8663;SDS011;4369;47.842;13.096;2022-10-16T05:32:20;8.90;;;3.27;;
8663;SDS011;4369;47.842;13.096;2022-10-16T05:34:51;5.47;;;3.23;;
8663;SDS011;4369;47.842;13.096;2022-10-16T05:37:18;4.17;;;3.00;;
8663;SDS011;4369;47.842;13.096;2022-10-16T05:39:46;8.23;;;2.83;;
8663;SDS011;4369;47.842;13.096;2022-10-16T05:42:13;4.60;;;2.60;;
8663;SDS011;4369;47.842;13.096;2022-10-16T05:44:40;5.17;;;2.10;;
8663;SDS011;4369;47.842;13.096;2022-10-16T05:47:07;2.23;;;1.93;;
8663;SDS011;4369;47.842;13.096;2022-10-16T05:49:35;4.63;;;1.87;;
8663;SDS011;4369;47.842;13.096;2022-10-16T05:52:02;3.50;;;1.63;;
8663;SDS011;4369;47.842;13.096;2022-10-16T05:54:29;2.67;;;2.20;;
8663;SDS011;4369;47.842;13.096;2022-10-16T05:56:57;3.13;;;2.43;;
8663;SDS011;4369;47.842;13.096;2022-10-16T05:59:24;2.53;;;2.33;;
8663;SDS011;4369;47.842;13.096;2022-10-16T06:01:51;8.20;;;4.83;;
8663;SDS011;4369;47.842;13.096;2022-10-16T06:04:18;13.73;;;10.27;;
8663;SDS011;4369;47.842;13.096;2022-10-16T06:06:45;11.00;;;5.83;;
8663;SDS011;4369;47.842;13.096;2022-10-16T06:09:12;7.50;;;3.83;;
8663;SDS011;4369;47.842;13.096;2022-10-16T06:11:39;3.73;;;3.20;;
8663;SDS011;4369;47.842;13.096;2022-10-16T06:14:07;4.00;;;2.70;;
8663;SDS011;4369;47.842;13.096;2022-10-16T06:16:35;5.97;;;3.80;;
8663;SDS011;4369;47.842;13.096;2022-10-16T06:19:02;8.27;;;5.97;;
8663;SDS011;4369;47.842;13.096;2022-10-16T06:21:31;10.53;;;5.80;;
8663;SDS011;4369;47.842;13.096;2022-10-16T06:23:58;7.13;;;4.33;;
8663;SDS011;4369;47.842;13.096;2022-10-16T06:26:26;6.67;;;6.03;;
8663;SDS011;4369;47.842;13.096;2022-10-16T06:28:54;9.40;;;8.50;;
8663;SDS011;4369;47.842;13.096;2022-10-16T06:31:22;7.90;;;7.00;;
8663;SDS011;4369;47.842;13.096;2022-10-16T06:33:53;9.83;;;4.50;;
8663;SDS011;4369;47.842;13.096;2022-10-16T06:36:21;3.93;;;2.90;;
8663;SDS011;4369;47.842;13.096;2022-10-16T06:38:48;3.87;;;2.90;;
8663;SDS011;4369;47.842;13.096;2022-10-16T06:41:16;6.80;;;3.80;;
8663;SDS011;4369;47.842;13.096;2022-10-16T06:43:44;4.67;;;4.27;;
8663;SDS011;4369;47.842;13.096;2022-10-16T06:46:11;9.53;;;7.00;;
8663;SDS011;4369;47.842;13.096;2022-10-16T06:48:41;8.03;;;5.80;;
8663;SDS011;4369;47.842;13.096;2022-10-16T06:51:09;5.40;;;4.23;;
8663;SDS011;4369;47.842;13.096;2022-10-16T06:53:38;4.53;;;3.63;;
8663;SDS011;4369;47.842;13.096;2022-10-16T06:56:07;4.20;;;3.30;;
8663;SDS011;4369;47.842;13.096;2022-10-16T06:58:34;5.00;;;3.47;;
8663;SDS011;4369;47.842;13.096;2022-10-16T07:01:01;6.33;;;3.60;;
8663;SDS011;4369;47.842;13.096;2022-10-16T07:03:29;3.93;;;2.80;;
8663;SDS011;4369;47.842;13.096;2022-10-16T07:05:57;3.80;;;2.50;;
8663;SDS011;4369;47.842;13.096;2022-10-16T07:08:28;2.50;;;2.30;;
8663;SDS011;4369;47.842;13.096;2022-10-16T07:11:00;3.10;;;1.60;;
8663;SDS011;4369;47.842;13.096;2022-10-16T07:13:27;2.07;;;1.60;;
8663;SDS011;4369;47.842;13.096;2022-10-16T07:15:54;2.40;;;1.40;;
8663;SDS011;4369;47.842;13.096;2022-10-16T07:18:21;1.27;;;1.17;;
8663;SDS011;4369;47.842;13.096;2022-10-16T07:20:51;5.53;;;1.77;;
8663;SDS011;4369;47.842;13.096;2022-10-16T07:23:20;1.13;;;1.10;;
8663;SDS011;4369;47.842;13.096;2022-10-16T07:25:52;2.93;;;2.43;;
8663;SDS011;4369;47.842;13.096;2022-10-16T07:28:20;6.93;;;2.50;;
8663;SDS011;4369;47.842;13.096;2022-10-16T07:30:47;2.87;;;2.13;;
8663;SDS011;4369;47.842;13.096;2022-10-16T07:33:14;2.17;;;1.90;;
8663;SDS011;4369;47.842;13.096;2022-10-16T07:35:47;2.00;;;1.70;;
8663;SDS011;4369;47.842;13.096;2022-10-16T07:38:15;4.30;;;1.77;;
8663;SDS011;4369;47.842;13.096;2022-10-16T07:40:43;4.40;;;2.70;;
8663;SDS011;4369;47.842;13.096;2022-10-16T07:43:11;2.33;;;2.13;;
8663;SDS011;4369;47.842;13.096;2022-10-16T07:45:46;2.83;;;1.90;;
8663;SDS011;4369;47.842;13.096;2022-10-16T07:48:14;3.60;;;1.67;;
8663;SDS011;4369;47.842;13.096;2022-10-16T07:50:42;1.97;;;1.50;;
8663;SDS011;4369;47.842;13.096;2022-10-16T07:53:09;3.43;;;1.30;;
8663;SDS011;4369;47.842;13.096;2022-10-16T07:55:36;1.30;;;1.20;;
8663;SDS011;4369;47.842;13.096;2022-10-16T07:58:05;1.93;;;1.50;;
8663;SDS011;4369;47.842;13.096;2022-10-16T08:00:32;4.80;;;1.93;;
8663;SDS011;4369;47.842;13.096;2022-10-16T08:02:59;1.60;;;1.50;;
8663;SDS011;4369;47.842;13.096;2022-10-16T08:05:27;3.47;;;1.67;;
8663;SDS011;4369;47.842;13.096;2022-10-16T08:07:55;1.43;;;1.00;;
8663;SDS011;4369;47.842;13.096;2022-10-16T08:10:25;6.00;;;1.40;;
8663;SDS011;4369;47.842;13.096;2022-10-16T08:12:53;0.90;;;0.90;;
8663;SDS011;4369;47.842;13.096;2022-10-16T08:15:22;1.90;;;1.20;;
8663;SDS011;4369;47.842;13.096;2022-10-16T08:17:59;0.93;;;0.93;;
8663;SDS011;4369;47.842;13.096;2022-10-16T08:20:27;1.60;;;1.23;;
8663;SDS011;4369;47.842;13.096;2022-10-16T08:22:56;1.07;;;1.07;;
8663;SDS011;4369;47.842;13.096;2022-10-16T08:25:25;2.47;;;1.50;;
8663;SDS011;4369;47.842;13.096;2022-10-16T08:27:52;3.47;;;1.50;;
8663;SDS011;4369;47.842;13.096;2022-10-16T08:30:19;3.30;;;1.60;;
8663;SDS011;4369;47.842;13.096;2022-10-16T08:32:49;1.80;;;1.10;;
8663;SDS011;4369;47.842;13.096;2022-10-16T08:35:16;3.13;;;1.77;;
8663;SDS011;4369;47.842;13.096;2022-10-16T08:37:43;3.83;;;1.70;;
8663;SDS011;4369;47.842;13.096;2022-10-16T08:40:15;1.33;;;1.23;;
8663;SDS011;4369;47.842;13.096;2022-10-16T08:42:52;2.03;;;1.20;;
8663;SDS011;4369;47.842;13.096;2022-10-16T08:45:35;1.47;;;1.37;;
8663;SDS011;4369;47.842;13.096;2022-10-16T08:48:14;5.97;;;1.87;;
8663;SDS011;4369;47.842;13.096;2022-10-16T08:50:47;2.30;;;1.70;;
8663;SDS011;4369;47.842;13.096;2022-10-16T08:53:16;3.30;;;1.10;;
8663;SDS011;4369;47.842;13.096;2022-10-16T08:55:49;1.37;;;1.30;;
8663;SDS011;4369;47.842;13.096;2022-10-16T08:58:17;2.40;;;1.40;;
8663;SDS011;4369;47.842;13.096;2022-10-16T09:00:48;3.70;;;1.50;;
8663;SDS011;4369;47.842;13.096;2022-10-16T09:03:17;1.50;;;1.40;;
8663;SDS011;4369;47.842;13.096;2022-10-16T09:05:54;4.20;;;1.53;;
8663;SDS011;4369;47.842;13.096;2022-10-16T09:08:32;4.20;;;1.20;;
8663;SDS011;4369;47.842;13.096;2022-10-16T09:11:09;1.87;;;1.43;;
8663;SDS011;4369;47.842;13.096;2022-10-16T09:13:47;6.27;;;1.60;;
8663;SDS011;4369;47.842;13.096;2022-10-16T09:16:21;2.03;;;1.40;;
8663;SDS011;4369;47.842;13.096;2022-10-16T09:18:54;1.60;;;1.50;;
8663;SDS011;4369;47.842;13.096;2022-10-16T09:21:28;2.30;;;1.40;;
8663;SDS011;4369;47.842;13.096;2022-10-16T09:23:57;1.60;;;1.50;;
8663;SDS011;4369;47.842;13.096;2022-10-16T09:26:26;1.70;;;1.60;;
8663;SDS011;4369;47.842;13.096;2022-10-16T09:28:53;4.40;;;1.83;;
8663;SDS011;4369;47.842;13.096;2022-10-16T09:31:22;2.37;;;1.43;;
8663;SDS011;4369;47.842;13.096;2022-10-16T09:33:50;1.80;;;1.70;;
8663;SDS011;4369;47.842;13.096;2022-10-16T09:36:20;2.93;;;1.60;;
8663;SDS011;4369;47.842;13.096;2022-10-16T09:38:48;2.97;;;1.20;;
8663;SDS011;4369;47.842;13.096;2022-10-16T09:41:16;2.10;;;1.20;;
8663;SDS011;4369;47.842;13.096;2022-10-16T09:43:47;1.60;;;1.50;;
8663;SDS011;4369;47.842;13.096;2022-10-16T09:46:25;3.27;;;1.27;;
8663;SDS011;4369;47.842;13.096;2022-10-16T09:48:54;3.13;;;1.50;;
8663;SDS011;4369;47.842;13.096;2022-10-16T09:51:23;2.67;;;1.20;;
8663;SDS011;4369;47.842;13.096;2022-10-16T09:53:54;1.80;;;1.40;;
8663;SDS011;4369;47.842;13.096;2022-10-16T09:56:23;1.23;;;1.13;;
8663;SDS011;4369;47.842;13.096;2022-10-16T09:58:54;1.80;;;1.20;;
8663;SDS011;4369;47.842;13.096;2022-10-16T10:01:25;1.37;;;1.27;;
8663;SDS011;4369;47.842;13.096;2022-10-16T10:03:56;1.77;;;1.30;;
8663;SDS011;4369;47.842;13.096;2022-10-16T10:06:28;2.63;;;1.23;;
8663;SDS011;4369;47.842;13.096;2022-10-16T10:08:58;2.43;;;1.40;;
8663;SDS011;4369;47.842;13.096;2022-10-16T10:11:36;2.20;;;1.20;;
8663;SDS011;4369;47.842;13.096;2022-10-16T10:14:05;3.70;;;1.23;;
8663;SDS011;4369;47.842;13.096;2022-10-16T10:16:33;4.60;;;1.50;;
8663;SDS011;4369;47.842;13.096;2022-10-16T10:19:01;1.57;;;1.30;;
8663;SDS011;4369;47.842;13.096;2022-10-16T10:21:27;3.20;;;1.50;;
8663;SDS011;4369;47.842;13.096;2022-10-16T10:23:54;3.43;;;1.40;;
8663;SDS011;4369;47.842;13.096;2022-10-16T10:26:23;2.93;;;1.70;;
8663;SDS011;4369;47.842;13.096;2022-10-16T10:28:55;1.90;;;1.70;;
8663;SDS011;4369;47.842;13.096;2022-10-16T10:31:29;1.37;;;1.20;;
8663;SDS011;4369;47.842;13.096;2022-10-16T10:34:09;2.63;;;1.23;;
8663;SDS011;4369;47.842;13.096;2022-10-16T10:36:49;1.50;;;1.40;;
8663;SDS011;4369;47.842;13.096;2022-10-16T10:39:23;2.60;;;1.30;;
8663;SDS011;4369;47.842;13.096;2022-10-16T10:44:50;1.40;;;1.30;;
8663;SDS011;4369;47.842;13.096;2022-10-16T10:47:27;1.30;;;1.03;;
8663;SDS011;4369;47.842;13.096;2022-10-16T10:50:05;1.67;;;1.30;;
8663;SDS011;4369;47.842;13.096;2022-10-16T10:52:41;3.77;;;1.40;;
8663;SDS011;4369;47.842;13.096;2022-10-16T10:55:16;2.20;;;1.30;;
8663;SDS011;4369;47.842;13.096;2022-10-16T11:00:42;1.80;;;1.40;;
8663;SDS011;4369;47.842;13.096;2022-10-16T11:03:21;1.40;;;1.30;;
8663;SDS011;4369;47.842;13.096;2022-10-16T11:05:58;4.90;;;1.63;;
8663;SDS011;4369;47.842;13.096;2022-10-16T11:08:32;2.20;;;1.50;;
8663;SDS011;4369;47.842;13.096;2022-10-16T11:11:02;1.83;;;1.15;;
8663;SDS011;4369;47.842;13.096;2022-10-16T11:13:33;1.50;;;1.20;;
8663;SDS011;4369;47.842;13.096;2022-10-16T11:16:11;2.83;;;1.40;;
8663;SDS011;4369;47.842;13.096;2022-10-16T11:18:44;2.42;;;1.15;;
8663;SDS011;4369;47.842;13.096;2022-10-16T11:21:17;1.40;;;1.30;;
8663;SDS011;4369;47.842;13.096;2022-10-16T11:23:48;0.90;;;0.90;;
8663;SDS011;4369;47.842;13.096;2022-10-16T11:26:22;3.65;;;1.65;;
8663;SDS011;4369;47.842;13.096;2022-10-16T11:28:53;2.28;;;1.30;;
8663;SDS011;4369;47.842;13.096;2022-10-16T11:31:22;3.13;;;1.35;;
8663;SDS011;4369;47.842;13.096;2022-10-16T11:33:59;3.42;;;1.30;;
8663;SDS011;4369;47.842;13.096;2022-10-16T11:36:33;1.00;;;1.00;;
8663;SDS011;4369;47.842;13.096;2022-10-16T11:39:08;2.65;;;1.30;;
8663;SDS011;4369;47.842;13.096;2022-10-16T11:41:51;1.90;;;1.40;;
8663;SDS011;4369;47.842;13.096;2022-10-16T11:44:27;1.65;;;1.23;;
8663;SDS011;4369;47.842;13.096;2022-10-16T11:47:08;2.90;;;1.50;;
8663;SDS011;4369;47.842;13.096;2022-10-16T11:49:42;2.95;;;1.45;;
8663;SDS011;4369;47.842;13.096;2022-10-16T11:52:13;2.25;;;1.42;;
8663;SDS011;4369;47.842;13.096;2022-10-16T11:54:45;2.72;;;1.30;;
8663;SDS011;4369;47.842;13.096;2022-10-16T11:57:18;2.38;;;1.30;;
8663;SDS011;4369;47.842;13.096;2022-10-16T11:59:49;2.00;;;1.20;;
8663;SDS011;4369;47.842;13.096;2022-10-16T12:02:25;2.38;;;1.50;;
8663;SDS011;4369;47.842;13.096;2022-10-16T12:05:11;2.10;;;1.30;;
8663;SDS011;4369;47.842;13.096;2022-10-16T12:07:47;1.63;;;1.38;;
8663;SDS011;4369;47.842;13.096;2022-10-16T12:10:19;2.03;;;1.25;;
8663;SDS011;4369;47.842;13.096;2022-10-16T12:12:48;3.17;;;1.40;;
8663;SDS011;4369;47.842;13.096;2022-10-16T12:15:21;2.53;;;1.35;;
8663;SDS011;4369;47.842;13.096;2022-10-16T12:17:50;3.28;;;1.50;;
8663;SDS011;4369;47.842;13.096;2022-10-16T12:20:20;1.35;;;1.35;;
8663;SDS011;4369;47.842;13.096;2022-10-16T12:22:52;1.80;;;1.30;;
8663;SDS011;4369;47.842;13.096;2022-10-16T12:25:22;3.47;;;1.30;;
8663;SDS011;4369;47.842;13.096;2022-10-16T12:27:56;2.28;;;1.40;;
8663;SDS011;4369;47.842;13.096;2022-10-16T12:30:26;2.42;;;1.48;;
8663;SDS011;4369;47.842;13.096;2022-10-16T12:32:55;1.35;;;1.33;;
8663;SDS011;4369;47.842;13.096;2022-10-16T12:35:25;2.20;;;1.40;;
8663;SDS011;4369;47.842;13.096;2022-10-16T12:37:54;2.22;;;1.50;;
8663;SDS011;4369;47.842;13.096;2022-10-16T12:40:38;1.98;;;1.48;;
8663;SDS011;4369;47.842;13.096;2022-10-16T12:43:12;2.28;;;1.23;;
8663;SDS011;4369;47.842;13.096;2022-10-16T12:45:58;1.48;;;1.38;;
8663;SDS011;4369;47.842;13.096;2022-10-16T12:48:26;1.70;;;1.40;;
8663;SDS011;4369;47.842;13.096;2022-10-16T12:51:19;1.20;;;1.20;;
8663;SDS011;4369;47.842;13.096;2022-10-16T12:53:57;1.20;;;1.20;;
8663;SDS011;4369;47.842;13.096;2022-10-16T12:56:26;1.52;;;1.33;;
8663;SDS011;4369;47.842;13.096;2022-10-16T12:59:04;1.30;;;1.30;;
8663;SDS011;4369;47.842;13.096;2022-10-16T13:01:41;1.48;;;1.35;;
8663;SDS011;4369;47.842;13.096;2022-10-16T13:04:21;2.25;;;1.40;;
8663;SDS011;4369;47.842;13.096;2022-10-16T13:07:06;2.60;;;2.20;;
8663;SDS011;4369;47.842;13.096;2022-10-16T13:09:52;2.65;;;1.50;;
8663;SDS011;4369;47.842;13.096;2022-10-16T13:12:45;1.65;;;1.38;;
8663;SDS011;4369;47.842;13.096;2022-10-16T13:15:34;1.00;;;1.00;;
8663;SDS011;4369;47.842;13.096;2022-10-16T13:18:13;2.00;;;1.00;;
8663;SDS011;4369;47.842;13.096;2022-10-16T13:20:50;1.00;;;1.00;;
8663;SDS011;4369;47.842;13.096;2022-10-16T13:23:25;1.92;;;0.80;;
8663;SDS011;4369;47.842;13.096;2022-10-16T13:26:00;1.13;;;0.90;;
8663;SDS011;4369;47.842;13.096;2022-10-16T13:28:35;1.73;;;0.80;;
8663;SDS011;4369;47.842;13.096;2022-10-16T13:31:04;0.70;;;0.70;;
8663;SDS011;4369;47.842;13.096;2022-10-16T13:33:37;0.65;;;0.60;;
8663;SDS011;4369;47.842;13.096;2022-10-16T13:36:06;1.55;;;0.70;;
8663;SDS011;4369;47.842;13.096;2022-10-16T13:38:35;1.85;;;0.77;;
8663;SDS011;4369;47.842;13.096;2022-10-16T13:41:03;2.55;;;0.90;;
8663;SDS011;4369;47.842;13.096;2022-10-16T13:43:31;2.65;;;0.73;;
8663;SDS011;4369;47.842;13.096;2022-10-16T13:46:01;2.42;;;0.73;;
8663;SDS011;4369;47.842;13.096;2022-10-16T13:48:30;1.65;;;0.70;;
8663;SDS011;4369;47.842;13.096;2022-10-16T13:50:59;0.75;;;0.70;;
8663;SDS011;4369;47.842;13.096;2022-10-16T13:53:31;2.85;;;0.70;;
8663;SDS011;4369;47.842;13.096;2022-10-16T13:56:02;1.88;;;0.95;;
8663;SDS011;4369;47.842;13.096;2022-10-16T13:58:30;0.70;;;0.70;;
8663;SDS011;4369;47.842;13.096;2022-10-16T14:00:58;2.58;;;0.80;;
8663;SDS011;4369;47.842;13.096;2022-10-16T14:03:27;5.22;;;0.90;;
8663;SDS011;4369;47.842;13.096;2022-10-16T14:05:56;0.60;;;0.60;;
8663;SDS011;4369;47.842;13.096;2022-10-16T14:08:25;0.98;;;0.80;;
8663;SDS011;4369;47.842;13.096;2022-10-16T14:10:54;1.38;;;0.70;;
8663;SDS011;4369;47.842;13.096;2022-10-16T14:13:26;0.85;;;0.73;;
8663;SDS011;4369;47.842;13.096;2022-10-16T14:16:00;0.95;;;0.65;;
8663;SDS011;4369;47.842;13.096;2022-10-16T14:18:31;0.70;;;0.70;;
8663;SDS011;4369;47.842;13.096;2022-10-16T14:21:02;1.45;;;0.60;;
8663;SDS011;4369;47.842;13.096;2022-10-16T14:23:31;1.23;;;0.77;;
8663;SDS011;4369;47.842;13.096;2022-10-16T14:26:05;1.48;;;0.68;;
8663;SDS011;4369;47.842;13.096;2022-10-16T14:28:40;0.50;;;0.50;;
8663;SDS011;4369;47.842;13.096;2022-10-16T14:34:04;1.23;;;0.57;;
8663;SDS011;4369;47.842;13.096;2022-10-16T14:36:52;2.45;;;0.80;;
8663;SDS011;4369;47.842;13.096;2022-10-16T14:39:19;2.53;;;0.63;;
8663;SDS011;4369;47.842;13.096;2022-10-16T14:41:48;2.33;;;0.55;;
8663;SDS011;4369;47.842;13.096;2022-10-16T14:44:18;3.17;;;0.77;;
8663;SDS011;4369;47.842;13.096;2022-10-16T14:46:49;1.85;;;0.85;;
8663;SDS011;4369;47.842;13.096;2022-10-16T14:49:16;1.52;;;0.90;;
8663;SDS011;4369;47.842;13.096;2022-10-16T14:51:45;2.03;;;1.00;;
8663;SDS011;4369;47.842;13.096;2022-10-16T14:54:12;0.95;;;0.80;;
8663;SDS011;4369;47.842;13.096;2022-10-16T14:56:45;1.48;;;0.88;;
8663;SDS011;4369;47.842;13.096;2022-10-16T14:59:15;2.72;;;0.93;;
8663;SDS011;4369;47.842;13.096;2022-10-16T15:01:46;1.85;;;0.75;;
8663;SDS011;4369;47.842;13.096;2022-10-16T15:04:13;3.60;;;1.05;;
8663;SDS011;4369;47.842;13.096;2022-10-16T15:06:41;2.15;;;1.42;;
8663;SDS011;4369;47.842;13.096;2022-10-16T15:09:08;2.55;;;0.90;;
8663;SDS011;4369;47.842;13.096;2022-10-16T15:11:35;3.00;;;0.85;;
8663;SDS011;4369;47.842;13.096;2022-10-16T15:14:02;3.83;;;1.00;;
8663;SDS011;4369;47.842;13.096;2022-10-16T15:16:33;0.82;;;0.82;;
8663;SDS011;4369;47.842;13.096;2022-10-16T15:19:01;2.72;;;1.27;;
8663;SDS011;4369;47.842;13.096;2022-10-16T15:21:29;3.25;;;1.17;;
8663;SDS011;4369;47.842;13.096;2022-10-16T15:23:56;1.08;;;0.90;;
8663;SDS011;4369;47.842;13.096;2022-10-16T15:26:24;1.40;;;0.90;;